createdAt,value
2023-02-15T00:00:13.078Z,14.60
2023-02-15T00:03:16.861Z,13.40
2023-02-15T00:06:18.820Z,13.60
2023-02-15T00:09:24.268Z,14.65
2023-02-15T00:12:26.153Z,13.57
2023-02-15T00:15:27.946Z,14.13
2023-02-15T00:18:29.777Z,13.52
2023-02-15T00:21:32.987Z,12.60
2023-02-15T00:24:36.199Z,12.88
2023-02-15T00:27:37.951Z,12.70
2023-02-15T00:30:39.841Z,13.55
2023-02-15T00:33:41.780Z,14.50
2023-02-15T00:36:44.149Z,14.35
2023-02-15T00:39:47.278Z,13.32
2023-02-15T00:42:49.188Z,13.85
2023-02-15T00:45:50.979Z,13.45
2023-02-15T00:48:52.794Z,13.25
2023-02-15T00:51:54.601Z,12.07
2023-02-15T00:54:57.746Z,13.38
2023-02-15T00:57:59.875Z,12.43
2023-02-15T01:01:05.482Z,13.13
2023-02-15T01:04:07.589Z,13.93
2023-02-15T01:07:09.382Z,13.27
2023-02-15T01:10:12.636Z,13.52
2023-02-15T01:13:15.624Z,13.00
2023-02-15T01:16:18.170Z,14.20
2023-02-15T01:19:19.943Z,12.93
2023-02-15T01:22:21.729Z,14.05
2023-02-15T01:25:26.513Z,15.43
2023-02-15T01:28:28.285Z,13.93
2023-02-15T01:31:30.221Z,14.43
2023-02-15T01:34:32.146Z,13.95
2023-02-15T01:37:34.724Z,13.80
2023-02-15T01:40:37.874Z,14.35
2023-02-15T01:43:44.888Z,14.25
2023-02-15T01:46:53.696Z,13.00
2023-02-15T01:50:02.416Z,13.15
2023-02-15T01:53:09.695Z,14.23
2023-02-15T01:56:17.842Z,13.75
2023-02-15T01:59:27.121Z,10.50
2023-02-15T02:02:29.645Z,14.30
2023-02-15T02:05:31.913Z,14.52
2023-02-15T02:08:34.773Z,13.73
2023-02-15T02:11:40.296Z,14.65
2023-02-15T02:14:43.154Z,14.52
2023-02-15T02:17:57.456Z,14.55
2023-02-15T02:21:28.922Z,13.95
2023-02-15T02:25:02.758Z,14.02
2023-02-15T02:28:26.794Z,14.02
2023-02-15T02:31:44.824Z,13.18
2023-02-15T02:34:54.135Z,15.18
2023-02-15T02:38:04.880Z,14.45
2023-02-15T02:41:17.803Z,14.57
2023-02-15T02:44:26.334Z,14.00
2023-02-15T02:47:33.407Z,13.38
2023-02-15T02:50:36.622Z,13.27
2023-02-15T02:53:38.806Z,14.55
2023-02-15T02:56:44.177Z,13.23
2023-02-15T02:59:51.475Z,13.82
2023-02-15T03:02:58.833Z,13.52
2023-02-15T03:06:07.966Z,14.15
2023-02-15T03:12:16.861Z,13.82
2023-02-15T03:15:21.796Z,13.50
2023-02-15T03:18:29.002Z,15.57
2023-02-15T03:21:39.125Z,12.98
2023-02-15T03:24:45.347Z,14.15
2023-02-15T03:27:52.669Z,12.80
2023-02-15T03:31:00.425Z,13.20
2023-02-15T03:34:05.544Z,12.63
2023-02-15T03:37:15.026Z,12.88
2023-02-15T03:40:20.628Z,12.18
2023-02-15T03:43:30.176Z,12.60
2023-02-15T03:46:35.764Z,12.05
2023-02-15T03:49:43.039Z,13.50
2023-02-15T03:52:46.237Z,12.93
2023-02-15T03:55:48.276Z,11.80
2023-02-15T03:58:50.023Z,12.38
2023-02-15T04:02:07.304Z,12.02
2023-02-15T04:05:09.084Z,12.85
2023-02-15T04:08:13.113Z,12.57
2023-02-15T04:11:14.886Z,12.90
2023-02-15T04:14:16.652Z,13.45
2023-02-15T04:17:18.445Z,13.95
2023-02-15T04:20:20.225Z,13.00
2023-02-15T04:23:23.345Z,12.73
2023-02-15T04:26:25.138Z,11.88
2023-02-15T04:29:28.294Z,12.55
2023-02-15T04:32:30.045Z,12.50
2023-02-15T04:35:31.834Z,13.30
2023-02-15T04:38:35.007Z,13.85
2023-02-15T04:41:36.869Z,12.23
2023-02-15T04:44:38.806Z,12.38
2023-02-15T04:47:40.598Z,13.45
2023-02-15T04:50:42.421Z,13.32
2023-02-15T04:53:45.622Z,13.00
2023-02-15T04:56:47.730Z,13.35
2023-02-15T04:59:49.518Z,12.75
2023-02-15T05:02:51.324Z,12.32
2023-02-15T05:05:53.109Z,12.82
2023-02-15T05:08:56.307Z,13.43
2023-02-15T05:11:58.058Z,13.63
2023-02-15T05:14:59.839Z,14.40
2023-02-15T05:18:01.658Z,14.77
2023-02-15T05:21:03.712Z,14.45
2023-02-15T05:24:07.259Z,14.52
2023-02-15T05:27:11.433Z,14.18
2023-02-15T05:30:14.562Z,13.70
2023-02-15T05:33:16.485Z,13.20
2023-02-15T05:36:21.046Z,12.73
2023-02-15T05:39:24.289Z,13.70
2023-02-15T05:42:26.113Z,12.40
2023-02-15T05:45:27.920Z,14.07
2023-02-15T05:48:30.005Z,13.45
2023-02-15T05:51:31.783Z,13.00
2023-02-15T05:54:34.954Z,13.15
2023-02-15T05:57:36.931Z,12.88
2023-02-15T06:00:38.704Z,15.25
2023-02-15T06:03:40.997Z,13.90
2023-02-15T06:06:42.930Z,14.45
2023-02-15T06:09:46.039Z,15.02
2023-02-15T06:12:47.849Z,15.23
2023-02-15T06:15:49.645Z,14.27
2023-02-15T06:18:53.619Z,13.95
2023-02-15T06:21:55.525Z,14.48
2023-02-15T06:24:58.688Z,13.80
2023-02-15T06:28:00.556Z,13.77
2023-02-15T06:31:02.424Z,12.95
2023-02-15T06:34:04.388Z,13.52
2023-02-15T06:37:06.194Z,13.80
2023-02-15T06:40:11.170Z,13.75
2023-02-15T06:43:12.964Z,14.45
2023-02-15T06:46:14.776Z,14.40
2023-02-15T06:49:16.634Z,13.20
2023-02-15T06:52:18.458Z,15.02
2023-02-15T06:55:21.612Z,15.13
2023-02-15T06:58:23.345Z,15.48
2023-02-15T07:01:25.209Z,15.02
2023-02-15T07:04:27.093Z,14.90
2023-02-15T07:07:28.975Z,14.20
2023-02-15T07:10:32.324Z,14.98
2023-02-15T07:13:34.140Z,14.55
2023-02-15T07:16:36.007Z,13.73
2023-02-15T07:19:37.776Z,12.98
2023-02-15T07:22:39.684Z,13.98
2023-02-15T07:25:42.928Z,13.40
2023-02-15T07:28:44.793Z,13.27
2023-02-15T07:31:46.588Z,14.07
2023-02-15T07:34:48.405Z,12.95
2023-02-15T07:37:50.246Z,13.75
2023-02-15T07:40:59.145Z,14.43
2023-02-15T07:44:00.969Z,14.27
2023-02-15T07:47:02.797Z,13.88
2023-02-15T07:50:05.548Z,12.88
2023-02-15T07:53:07.376Z,13.40
2023-02-15T07:56:13.261Z,14.57
2023-02-15T07:59:15.278Z,13.75
2023-02-15T08:02:18.736Z,13.38
2023-02-15T08:05:20.504Z,12.77
2023-02-15T08:08:22.306Z,12.70
2023-02-15T08:11:27.718Z,13.10
2023-02-15T08:14:29.530Z,12.27
2023-02-15T08:17:31.359Z,11.70
2023-02-15T08:20:33.191Z,12.98
2023-02-15T08:23:34.968Z,11.20
2023-02-15T08:26:41.758Z,11.82
2023-02-15T08:29:43.949Z,11.27
2023-02-15T08:32:45.764Z,11.07
2023-02-15T08:35:47.616Z,13.23
2023-02-15T08:38:50.076Z,12.30
2023-02-15T08:41:53.323Z,12.57
2023-02-15T08:44:55.192Z,11.63
2023-02-15T08:47:56.976Z,11.85
2023-02-15T08:50:58.772Z,12.27
2023-02-15T08:54:03.019Z,12.35
2023-02-15T08:57:06.206Z,12.85
2023-02-15T09:00:09.109Z,13.00
2023-02-15T09:03:10.900Z,12.85
2023-02-15T09:06:13.278Z,11.93
2023-02-15T09:09:15.690Z,11.75
2023-02-15T09:12:18.867Z,11.50
2023-02-15T09:15:20.685Z,11.27
2023-02-15T09:18:22.438Z,12.68
2023-02-15T09:21:25.689Z,12.25
2023-02-15T09:24:27.557Z,12.88
2023-02-15T09:27:30.767Z,12.15
2023-02-15T09:30:32.578Z,12.68
2023-02-15T09:33:35.415Z,12.23
2023-02-15T09:36:38.925Z,12.80
2023-02-15T09:39:43.611Z,12.82
2023-02-15T09:43:17.770Z,11.55
2023-02-15T09:46:40.227Z,12.55
2023-02-15T09:49:52.271Z,13.05
2023-02-15T09:53:11.465Z,14.32
2023-02-15T09:56:21.201Z,13.63
2023-02-15T09:59:33.648Z,13.15
2023-02-15T10:02:50.446Z,12.52
2023-02-15T10:06:06.888Z,12.85
2023-02-15T10:09:37.459Z,13.82
2023-02-15T10:12:54.860Z,13.70
2023-02-15T10:16:14.873Z,13.35
2023-02-15T10:19:28.624Z,15.23
2023-02-15T10:22:38.840Z,13.23
2023-02-15T10:25:47.478Z,14.27
2023-02-15T10:28:51.046Z,12.95
2023-02-15T10:32:06.294Z,13.40
2023-02-15T10:35:20.897Z,14.25
2023-02-15T10:38:30.772Z,14.20
2023-02-15T10:41:44.151Z,14.77
2023-02-15T10:45:03.968Z,14.93
2023-02-15T10:48:23.691Z,15.47
2023-02-15T10:51:36.723Z,14.05
2023-02-15T10:54:45.684Z,13.98
2023-02-15T10:57:58.210Z,14.50
2023-02-15T11:01:08.555Z,14.60
2023-02-15T11:04:40.551Z,15.75
2023-02-15T11:07:45.989Z,15.00
2023-02-15T11:10:52.373Z,14.75
2023-02-15T11:13:58.797Z,14.93
2023-02-15T11:17:05.731Z,14.95
2023-02-15T11:20:19.873Z,16.38
2023-02-15T11:23:22.458Z,15.65
2023-02-15T11:26:30.919Z,16.85
2023-02-15T11:29:38.350Z,16.65
2023-02-15T11:32:42.702Z,15.50
2023-02-15T11:35:51.891Z,16.58
2023-02-15T11:38:59.670Z,16.27
2023-02-15T11:42:05.671Z,16.95
2023-02-15T11:45:22.266Z,16.02
2023-02-15T11:48:24.181Z,16.92
2023-02-15T11:51:28.831Z,18.77
2023-02-15T11:54:33.480Z,16.67
2023-02-15T11:57:41.667Z,17.17
2023-02-15T12:00:46.488Z,17.20
2023-02-15T12:03:51.143Z,16.90
2023-02-15T12:07:02.352Z,16.80
2023-02-15T12:10:06.435Z,17.13
2023-02-15T12:13:12.738Z,15.85
2023-02-15T12:16:16.225Z,16.42
2023-02-15T12:19:29.946Z,16.75
2023-02-15T12:22:37.307Z,16.35
2023-02-15T12:25:42.418Z,15.07
2023-02-15T12:28:50.301Z,16.17
2023-02-15T12:31:53.526Z,16.27
2023-02-15T12:35:02.289Z,17.17
2023-02-15T12:38:20.695Z,16.80
2023-02-15T12:41:24.583Z,16.25
2023-02-15T12:44:28.826Z,15.23
2023-02-15T12:47:31.594Z,16.65
2023-02-15T12:50:36.373Z,16.15
2023-02-15T12:53:39.585Z,16.27
2023-02-15T12:56:41.494Z,17.50
2023-02-15T12:59:50.769Z,15.80
2023-02-15T13:02:55.928Z,16.40
2023-02-15T13:05:59.160Z,17.00
2023-02-15T13:09:12.874Z,16.20
2023-02-15T13:12:21.119Z,17.83
2023-02-15T13:15:32.401Z,11.77
2023-02-15T13:18:36.859Z,16.35
2023-02-15T13:21:42.382Z,18.48
2023-02-15T13:24:49.322Z,16.88
2023-02-15T13:27:55.133Z,17.13
2023-02-15T13:30:56.975Z,17.77
2023-02-15T13:34:04.300Z,16.98
2023-02-15T13:37:13.399Z,17.85
2023-02-15T13:43:36.935Z,16.67
2023-02-15T13:47:03.433Z,16.58
2023-02-15T13:50:34.028Z,17.83
2023-02-15T13:53:57.465Z,17.40
2023-02-15T13:57:18.698Z,16.75
2023-02-15T14:00:26.848Z,17.92
2023-02-15T14:03:58.300Z,17.40
2023-02-15T14:07:18.923Z,18.55
2023-02-15T14:10:44.332Z,18.63
2023-02-15T14:14:02.553Z,17.08
2023-02-15T14:17:12.818Z,18.85
2023-02-15T14:20:22.853Z,18.63
2023-02-15T14:23:37.616Z,19.27
2023-02-15T14:26:48.942Z,18.27
2023-02-15T14:29:55.845Z,19.42
2023-02-15T14:33:01.842Z,19.10
2023-02-15T14:36:07.294Z,18.88
2023-02-15T14:39:20.002Z,19.13
2023-02-15T14:42:30.972Z,19.23
2023-02-15T14:45:41.622Z,19.35
2023-02-15T14:48:47.757Z,18.75
2023-02-15T14:51:58.027Z,18.33
2023-02-15T14:55:00.134Z,19.17
2023-02-15T14:58:02.012Z,17.90
2023-02-15T15:01:08.455Z,18.55
2023-02-15T15:04:14.974Z,17.33
2023-02-15T15:07:21.648Z,18.73
2023-02-15T15:10:42.212Z,17.60
2023-02-15T15:13:54.928Z,17.77
2023-02-15T15:16:59.129Z,18.45
2023-02-15T15:20:01.990Z,18.23
2023-02-15T15:23:41.193Z,18.77
2023-02-15T15:26:43.023Z,18.05
2023-02-15T15:29:44.893Z,18.70
2023-02-15T15:32:56.019Z,18.30
2023-02-15T15:36:22.360Z,19.42
2023-02-15T15:39:55.498Z,17.85
2023-02-15T15:43:31.707Z,18.50
2023-02-15T15:46:52.986Z,17.38
2023-02-15T15:49:59.443Z,17.45
2023-02-15T15:53:03.671Z,18.23
2023-02-15T15:56:09.601Z,17.45
2023-02-15T15:59:19.419Z,17.00
2023-02-15T16:02:21.520Z,17.55
2023-02-15T16:05:24.843Z,16.42
2023-02-15T16:08:29.299Z,16.33
2023-02-15T16:11:32.427Z,18.02
2023-02-15T16:14:38.475Z,16.02
2023-02-15T16:17:43.842Z,18.00
2023-02-15T16:20:53.357Z,17.05
2023-02-15T16:24:11.536Z,16.45
2023-02-15T16:27:34.245Z,15.85
2023-02-15T16:30:38.117Z,16.95
2023-02-15T16:33:42.224Z,17.05
2023-02-15T16:36:45.912Z,16.50
2023-02-15T16:39:48.441Z,17.08
2023-02-15T16:42:52.921Z,16.67
2023-02-15T16:46:03.810Z,18.05
2023-02-15T16:49:09.545Z,15.00
2023-02-15T16:52:22.757Z,14.88
2023-02-15T16:55:28.710Z,14.57
2023-02-15T16:58:37.504Z,14.43
2023-02-15T17:01:40.184Z,15.25
2023-02-15T17:04:43.778Z,14.38
2023-02-15T17:08:07.131Z,14.55
2023-02-15T17:11:18.353Z,14.43
2023-02-15T17:14:29.105Z,13.90
2023-02-15T17:17:33.253Z,14.38
2023-02-15T17:20:39.790Z,16.08
2023-02-15T17:23:46.815Z,15.20
2023-02-15T17:26:52.891Z,14.88
2023-02-15T17:29:59.177Z,15.55
2023-02-15T17:33:05.863Z,15.45
2023-02-15T17:36:13.300Z,17.23
2023-02-15T17:39:28.551Z,14.70
2023-02-15T17:42:33.002Z,15.07
2023-02-15T17:45:41.907Z,15.35
2023-02-15T17:48:46.724Z,15.43
2023-02-15T17:51:52.174Z,14.52
2023-02-15T17:54:56.706Z,14.00
2023-02-15T17:58:00.708Z,14.68
2023-02-15T18:01:08.827Z,14.57
2023-02-15T18:04:14.288Z,14.85
2023-02-15T18:07:19.240Z,14.57
2023-02-15T18:10:26.541Z,15.18
2023-02-15T18:13:29.154Z,14.73
2023-02-15T18:16:37.376Z,15.48
2023-02-15T18:19:41.480Z,11.30
2023-02-15T18:22:45.004Z,14.80
2023-02-15T18:25:51.007Z,15.23
2023-02-15T18:28:55.960Z,18.08
2023-02-15T18:32:01.606Z,17.33
2023-02-15T18:35:05.291Z,16.20
2023-02-15T18:38:11.359Z,17.90
2023-02-15T18:41:20.333Z,18.95
2023-02-15T18:47:27.327Z,17.30
2023-02-15T18:50:34.935Z,16.98
2023-02-15T18:53:38.145Z,16.67
2023-02-15T18:56:42.884Z,16.92
2023-02-15T18:59:45.898Z,17.05
2023-02-15T19:02:49.696Z,17.83
2023-02-15T19:05:54.116Z,17.60
2023-02-15T19:08:58.486Z,18.50
2023-02-15T19:12:03.389Z,17.90
2023-02-15T19:15:07.682Z,17.42
2023-02-15T19:18:14.461Z,18.17
2023-02-15T19:21:18.409Z,16.25
2023-02-15T19:24:25.230Z,16.15
2023-02-15T19:27:32.088Z,16.40
2023-02-15T19:30:36.778Z,16.15
2023-02-15T19:33:40.244Z,14.82
2023-02-15T19:36:47.265Z,14.18
2023-02-15T19:39:54.762Z,14.00
2023-02-15T19:43:00.279Z,14.05
2023-02-15T19:46:03.702Z,15.35
2023-02-15T19:49:08.077Z,14.63
2023-02-15T19:52:18.556Z,16.15
2023-02-15T19:55:25.251Z,15.55
2023-02-15T19:58:30.319Z,16.25
2023-02-15T20:01:35.186Z,16.20
2023-02-15T20:04:39.143Z,17.33
2023-02-15T20:07:43.971Z,16.02
2023-02-15T20:10:47.073Z,18.70
2023-02-15T20:13:52.001Z,18.77
2023-02-15T20:16:55.906Z,19.60
2023-02-15T20:20:02.085Z,20.75
2023-02-15T20:23:05.700Z,19.90
2023-02-15T20:26:16.761Z,19.45
2023-02-15T20:29:21.788Z,18.58
2023-02-15T20:32:26.568Z,17.60
2023-02-15T20:35:30.451Z,18.42
2023-02-15T20:38:34.924Z,18.83
2023-02-15T20:41:39.254Z,18.75
2023-02-15T20:44:46.978Z,17.85
2023-02-15T20:47:54.084Z,17.00
2023-02-15T20:50:58.336Z,16.95
2023-02-15T20:54:01.799Z,17.90
2023-02-15T20:57:04.923Z,16.52
2023-02-15T21:00:14.644Z,18.20
2023-02-15T21:03:19.502Z,19.27
2023-02-15T21:06:22.753Z,23.88
2023-02-15T21:09:26.127Z,25.10
2023-02-15T21:12:34.994Z,22.73
2023-02-15T21:15:40.098Z,20.60
2023-02-15T21:18:42.567Z,20.70
2023-02-15T21:21:46.346Z,23.08
2023-02-15T21:24:52.378Z,21.75
2023-02-15T21:27:55.502Z,21.50
2023-02-15T21:31:00.136Z,21.98
2023-02-15T21:34:05.744Z,22.08
2023-02-15T21:37:28.458Z,22.55
2023-02-15T21:40:32.971Z,21.95
2023-02-15T21:43:35.230Z,21.17
2023-02-15T21:46:39.328Z,20.88
2023-02-15T21:49:41.684Z,21.25
2023-02-15T21:52:44.143Z,23.02
2023-02-15T21:55:46.532Z,21.00
2023-02-15T21:58:49.718Z,20.55
2023-02-15T22:01:53.291Z,20.95
2023-02-15T22:04:55.643Z,19.50
2023-02-15T22:07:58.096Z,19.67
2023-02-15T22:11:00.112Z,16.35
2023-02-15T22:14:01.948Z,17.23
2023-02-15T22:17:15.120Z,17.83
2023-02-15T22:20:20.585Z,18.08
2023-02-15T22:23:23.329Z,18.45
2023-02-15T22:26:26.694Z,19.25
2023-02-15T22:29:28.613Z,17.80
2023-02-15T22:32:31.953Z,17.73
2023-02-15T22:35:35.066Z,19.77
2023-02-15T22:38:36.835Z,21.88
2023-02-15T22:41:38.687Z,22.55
2023-02-15T22:44:40.493Z,21.85
2023-02-15T22:47:44.293Z,23.77
2023-02-15T22:50:46.074Z,24.48
2023-02-15T22:53:47.845Z,21.60
2023-02-15T22:56:51.956Z,21.20
2023-02-15T22:59:53.849Z,18.42
2023-02-15T23:02:57.137Z,15.02
2023-02-15T23:05:58.989Z,15.68
2023-02-15T23:09:00.938Z,15.13
2023-02-15T23:12:02.853Z,16.80
2023-02-15T23:15:10.861Z,19.10
2023-02-15T23:18:19.235Z,12.73
2023-02-15T23:21:23.806Z,17.73
2023-02-15T23:24:28.243Z,18.10
2023-02-15T23:27:30.002Z,18.30
2023-02-15T23:30:31.867Z,17.30
2023-02-15T23:33:35.409Z,16.63
2023-02-15T23:36:41.469Z,15.85
2023-02-15T23:39:43.261Z,15.93
2023-02-15T23:42:45.105Z,17.20
2023-02-15T23:45:47.113Z,17.65
2023-02-15T23:48:50.491Z,17.13
2023-02-15T23:51:54.700Z,16.45
2023-02-15T23:54:56.492Z,15.48
2023-02-15T23:57:58.374Z,16.10
